Weather at Valleyfield Airport

Public forecast

Using degrees Celsius for public forecast. Weather courtesy of forecast.io.

Closest aviation weather report (METAR) to Valleyfield Airport

Closest report is Montreal / Pierre Elliott Trudeau International Airport, 22.9 nm (42.5 km) NE.

2024/05/26 21:00 (retrieved 60 minutes ago)

CYUL 262100Z 19004KT 150V290 30SM FEW050TCU FEW080 BKN250 25/11 A2994 RMK TCU2AC1CS5 AC TR TCU W-NW SLP140 DENSITY ALT 1300FT

Closest aviation forecast (TAF) to Valleyfield Airport

Closest forecast is Montreal / Pierre Elliott Trudeau International Airport, 22.9 nm (42.5 km) NE.

2024/05/26 21:42 (retrieved 18 minutes ago)

TAF CYUL 262040Z 2621/2718 VRB03KT P6SM FEW040 FEW240 FM270500 05008KT P6SM SCT100 BKN250 FM271100 12010KT P6SM BKN030 BKN090 OVC200 BECMG 2711/2713 14015G28KT FM271400 15015G28KT P6SM -SHRA SCT030 OVC100 FM271700 14015G25KT P6SM -SHRA BKN040 OVC100 RMK NXT FCST BY 270000Z